Time;durP1;ratioP1;P1;durP2;ratioP2;P2;SDS_P1;SDS_P2;PMS_P1;PMS_P2;Temp;Humidity;BMP_temperature;BMP_pressure;BME280_temperature;BME280_humidity;BME280_pressure;Samples;Min_cycle;Max_cycle;Signal;HPM_P1;HPM_P2
2022/04/19 00:01:10;;;;;;;;;;;;;;;15.64;61.37;100613.38;5095412;28;1526;-35
2022/04/19 00:03:38;;;;;;;;;;;;;;;15.61;61.40;100605.59;5109960;28;1212;-34
2022/04/19 00:06:04;;;;;;;;;;;;;;;15.61;62.13;100608.28;5107708;28;1762;-35
2022/04/19 00:08:31;;;;;;;;;;;;;;;15.63;60.98;100601.00;5105487;28;1994;-35
2022/04/19 00:10:58;;;;;;;;;;;;;;;15.60;62.03;100605.75;5112313;28;1847;-34
2022/04/19 00:13:24;;;;;;;;;;;;;;;15.59;62.01;100607.53;5108126;28;1635;-35
2022/04/19 00:15:51;;;;;;;;;;;;;;;15.59;61.56;100606.69;5108763;28;1542;-35
2022/04/19 00:18:19;;;;;;;;;;;;;;;15.62;61.31;100609.16;5113087;28;1906;-35
2022/04/19 00:20:47;;;;;;;;;;;;;;;15.62;61.40;100603.81;5107920;28;1578;-35
2022/04/19 00:23:13;;;;;;;;;;;;;;;15.59;61.15;100598.69;5104540;28;1781;-35
2022/04/19 00:25:40;;;;;;;;;;;;;;;15.58;61.46;100597.00;5111777;28;1514;-34
2022/04/19 00:28:07;;;;;;;;;;;;;;;15.58;62.09;100597.84;5109162;28;1670;-34
2022/04/19 00:30:34;;;;;;;;;;;;;;;15.59;61.18;100596.03;5110056;28;1806;-35
2022/04/19 00:33:00;;;;;;;;;;;;;;;15.57;61.64;100592.63;5110459;28;1075;-35
2022/04/19 00:35:28;;;;;;;;;;;;;;;15.62;61.89;100602.00;5108090;28;2007;-34
2022/04/19 00:37:55;;;;;;;;;;;;;;;15.58;61.32;100589.88;5107984;28;1985;-35
2022/04/19 00:40:22;;;;;;;;;;;;;;;15.58;62.11;100587.19;5109777;28;1336;-35
2022/04/19 00:42:49;;;;;;;;;;;;;;;15.60;60.95;100590.59;5108491;28;1839;-35
2022/04/19 00:45:15;;;;;;;;;;;;;;;15.59;61.32;100590.72;5108090;28;1649;-35
2022/04/19 00:47:41;;;;;;;;;;;;;;;15.59;61.85;100582.72;5113681;28;1284;-35
2022/04/19 00:50:08;;;;;;;;;;;;;;;15.61;61.26;100584.28;5108641;28;1914;-34
2022/04/19 00:52:35;;;;;;;;;;;;;;;15.61;61.47;100589.63;5109811;28;1794;-35
2022/04/19 00:55:04;;;;;;;;;;;;;;;15.60;61.48;100587.09;5107205;28;1672;-34
2022/04/19 00:57:32;;;;;;;;;;;;;;;15.60;61.47;100579.09;5101819;28;1980;-34
2022/04/19 00:59:58;;;;;;;;;;;;;;;15.57;61.40;100595.31;5107923;28;1832;-35
2022/04/19 01:02:26;;;;;;;;;;;;;;;15.55;62.02;100589.25;5105790;28;1524;-35
2022/04/19 01:04:55;;;;;;;;;;;;;;;15.57;61.30;100588.16;5115215;28;1860;-35
2022/04/19 01:07:22;;;;;;;;;;;;;;;15.55;62.13;100583.91;5114861;28;1442;-34
2022/04/19 01:09:49;;;;;;;;;;;;;;;15.55;61.89;100571.44;5106152;28;1875;-35
2022/04/19 01:15:02;;;;;;;;;;;;;;;15.54;62.15;100587.53;5114516;28;1607;-35
2022/04/19 01:17:29;;;;;;;;;;;;;;;15.55;62.21;100579.44;5114990;28;1086;-34
2022/04/19 01:19:56;;;;;;;;;;;;;;;15.54;61.58;100577.75;5114952;28;2230;-35
2022/04/19 01:22:24;;;;;;;;;;;;;;;15.53;60.89;100584.03;5115222;28;1856;-34
2022/04/19 01:24:50;;;;;;;;;;;;;;;15.55;61.88;100575.91;5107121;28;1906;-34
2022/04/19 01:27:18;;;;;;;;;;;;;;;15.56;60.87;100596.25;5114199;28;1458;-35
2022/04/19 01:29:45;;;;;;;;;;;;;;;15.52;60.76;100571.69;5114700;28;1617;-34
2022/04/19 01:32:13;;;;;;;;;;;;;;;15.55;60.83;100591.91;5115183;28;1081;-34
2022/04/19 01:34:39;;;;;;;;;;;;;;;15.60;61.95;100584.44;5114437;28;1772;-34
2022/04/19 01:37:06;;;;;;;;;;;;;;;15.55;61.66;100587.41;5114597;28;1614;-34
2022/04/19 01:42:18;;;;;;;;;;;;;;;15.51;61.07;100585.97;5114271;28;817;-34
2022/04/19 01:44:44;;;;;;;;;;;;;;;15.54;62.01;100592.84;5114343;28;2017;-34
2022/04/19 01:47:11;;;;;;;;;;;;;;;15.51;61.91;100589.47;5114961;28;1811;-35
2022/04/19 01:49:37;;;;;;;;;;;;;;;15.56;60.87;100585.59;5116092;28;1901;-34
2022/04/19 01:52:08;;;;;;;;;;;;;;;15.54;61.49;100574.19;5113748;28;1307;-35
2022/04/19 01:54:35;;;;;;;;;;;;;;;15.49;61.74;100580.72;5114193;28;1614;-35
2022/04/19 01:57:02;;;;;;;;;;;;;;;15.54;60.42;100590.19;5114174;28;1804;-34
2022/04/19 01:59:28;;;;;;;;;;;;;;;15.53;62.02;100584.03;5114415;28;1981;-34
2022/04/19 02:01:55;;;;;;;;;;;;;;;15.54;61.56;100584.88;5059553;22;3530;-61
2022/04/19 02:04:22;;;;;;;;;;;;;;;15.55;61.84;100575.91;5019191;28;1224;-61
2022/04/19 02:06:48;;;;;;;;;;;;;;;15.52;60.55;100585.84;5020948;28;1486;-60
2022/04/19 02:09:15;;;;;;;;;;;;;;;15.55;60.78;100590.09;5021792;28;1633;-61
2022/04/19 02:11:43;;;;;;;;;;;;;;;15.54;60.43;100588.41;4991568;28;1644;-61
2022/04/19 02:14:10;;;;;;;;;;;;;;;15.52;61.50;100577.00;5020082;28;1079;-60
2022/04/19 02:16:37;;;;;;;;;;;;;;;15.56;62.05;100580.25;5018824;28;1877;-61
2022/04/19 02:19:03;;;;;;;;;;;;;;;15.53;60.44;100586.69;5028894;28;1906;-61
2022/04/19 02:21:32;;;;;;;;;;;;;;;15.54;60.71;100582.19;5020375;28;1559;-61
2022/04/19 02:23:58;;;;;;;;;;;;;;;15.54;62.23;100579.53;5021283;28;981;-61
2022/04/19 02:26:25;;;;;;;;;;;;;;;15.53;60.93;100578.69;5020468;28;1485;-60
2022/04/19 02:28:53;;;;;;;;;;;;;;;15.55;62.00;100571.44;5019494;28;1714;-60
2022/04/19 02:31:19;;;;;;;;;;;;;;;15.49;61.85;100575.41;5020340;28;1721;-61
2022/04/19 02:33:46;;;;;;;;;;;;;;;15.51;61.93;100584.13;5029027;28;1461;-61
2022/04/19 02:36:12;;;;;;;;;;;;;;;15.52;61.66;100590.34;5020776;28;981;-62
2022/04/19 02:38:39;;;;;;;;;;;;;;;15.47;61.99;100577.34;5019536;28;1902;-60
2022/04/19 02:41:05;;;;;;;;;;;;;;;15.47;62.16;100580.00;5025305;28;1750;-61
2022/04/19 02:43:32;;;;;;;;;;;;;;;15.46;62.04;100578.31;5021363;28;1276;-60
2022/04/19 02:46:00;;;;;;;;;;;;;;;15.49;62.09;100587.88;5021042;28;1579;-61
2022/04/19 02:48:28;;;;;;;;;;;;;;;15.48;61.44;100587.03;5022946;28;1206;-60
2022/04/19 02:50:54;;;;;;;;;;;;;;;15.48;61.88;100592.38;5019335;28;1738;-61
2022/04/19 02:53:21;;;;;;;;;;;;;;;15.47;61.55;100584.50;5020721;28;1754;-60
2022/04/19 02:55:48;;;;;;;;;;;;;;;15.47;61.44;100582.66;5025337;28;1559;-61
2022/04/19 02:58:14;;;;;;;;;;;;;;;15.49;61.71;100590.56;5019505;28;1973;-60
2022/04/19 03:00:41;;;;;;;;;;;;;;;15.48;60.70;100595.03;5021288;28;1539;-60
2022/04/19 03:03:09;;;;;;;;;;;;;;;15.50;62.09;100601.09;5025623;28;981;-61
2022/04/19 03:05:39;;;;;;;;;;;;;;;15.47;61.96;100604.00;5020806;28;1853;-60
2022/04/19 03:08:05;;;;;;;;;;;;;;;15.48;62.06;100605.69;5021779;28;1271;-60
2022/04/19 03:10:32;;;;;;;;;;;;;;;15.47;60.46;100606.66;5021103;28;1559;-60
2022/04/19 03:12:58;;;;;;;;;;;;;;;15.50;61.63;100616.25;5021054;28;1447;-60
2022/04/19 03:15:27;;;;;;;;;;;;;;;15.47;62.03;100619.97;5021284;28;1652;-61
2022/04/19 03:17:53;;;;;;;;;;;;;;;15.47;61.10;100611.97;5023191;28;1011;-60
2022/04/19 03:20:21;;;;;;;;;;;;;;;15.47;62.12;100622.66;5022786;28;1995;-60
2022/04/19 03:28:17;;;;;;;;;;;;;;;15.48;61.99;100637.69;5021245;28;1380;-61
2022/04/19 03:30:43;;;;;;;;;;;;;;;15.47;61.71;100632.47;5020730;28;1212;-60
2022/04/19 03:33:10;;;;;;;;;;;;;;;15.47;61.92;100633.31;5025452;28;1068;-60
2022/04/19 03:35:38;;;;;;;;;;;;;;;15.45;61.57;100629.91;5020525;28;1550;-60
2022/04/19 03:38:05;;;;;;;;;;;;;;;15.47;61.47;100638.63;5020813;28;1590;-60
2022/04/19 03:40:31;;;;;;;;;;;;;;;15.46;61.59;100644.09;5025213;28;1906;-61
2022/04/19 03:42:58;;;;;;;;;;;;;;;15.48;62.02;100645.69;5022509;28;1591;-61
2022/04/19 03:45:25;;;;;;;;;;;;;;;15.45;61.23;100639.72;5023390;28;1555;-61
2022/04/19 03:47:53;;;;;;;;;;;;;;;15.46;62.13;100644.09;5025182;28;981;-61
2022/04/19 03:50:19;;;;;;;;;;;;;;;15.45;60.47;100634.41;5025785;28;1334;-61
2022/04/19 03:52:49;;;;;;;;;;;;;;;15.49;61.26;100644.69;5024438;28;1892;-61
2022/04/19 03:55:16;;;;;;;;;;;;;;;15.45;61.64;100651.22;5023986;28;1383;-60
2022/04/19 03:57:42;;;;;;;;;;;;;;;15.45;62.06;100635.22;5024270;28;1478;-60
2022/04/19 04:00:09;;;;;;;;;;;;;;;15.43;60.44;100647.81;5022200;28;1906;-61
2022/04/19 04:02:36;;;;;;;;;;;;;;;15.44;61.15;100652.22;5025183;28;1407;-61
2022/04/19 04:05:03;;;;;;;;;;;;;;;15.43;61.33;100647.81;5028439;28;1734;-60
2022/04/19 04:07:30;;;;;;;;;;;;;;;15.44;60.67;100657.53;5024278;28;1391;-61
2022/04/19 04:09:58;;;;;;;;;;;;;;;15.47;61.82;100669.78;5022994;28;1568;-61
2022/04/19 04:12:25;;;;;;;;;;;;;;;15.43;61.69;100657.63;5016569;28;1313;-60
2022/04/19 04:14:52;;;;;;;;;;;;;;;15.43;60.56;100661.16;5017884;28;1505;-61
2022/04/19 04:17:19;;;;;;;;;;;;;;;15.43;62.15;100662.97;5025406;28;1071;-61
2022/04/19 04:19:45;;;;;;;;;;;;;;;15.43;61.59;100668.31;5029844;28;1902;-61
2022/04/19 04:22:12;;;;;;;;;;;;;;;15.44;60.59;100670.03;5022069;28;1286;-60
2022/04/19 04:24:39;;;;;;;;;;;;;;;15.46;62.10;100678.75;5021709;28;1419;-60
2022/04/19 04:27:07;;;;;;;;;;;;;;;15.42;61.67;100667.47;5022070;28;1219;-60
2022/04/19 04:29:33;;;;;;;;;;;;;;;15.41;60.50;100660.41;5023225;28;1598;-60
2022/04/19 04:32:00;;;;;;;;;;;;;;;15.41;61.95;100662.25;5022964;28;1018;-61
2022/04/19 04:34:27;;;;;;;;;;;;;;;15.45;60.72;100667.22;5030670;28;1546;-61
2022/04/19 04:36:53;;;;;;;;;;;;;;;15.44;60.73;100678.84;5021686;28;1591;-61
2022/04/19 04:39:19;;;;;;;;;;;;;;;15.47;61.83;100685.75;5025018;28;1910;-61
2022/04/19 04:41:46;;;;;;;;;;;;;;;15.47;61.97;100688.44;5022117;28;1387;-60
2022/04/19 04:44:14;;;;;;;;;;;;;;;15.42;62.09;100691.44;5023557;28;1555;-60
2022/04/19 04:49:36;;;;;;;;;;;;;;;15.45;61.93;100691.19;5029007;28;1185;-60
2022/04/19 04:52:03;;;;;;;;;;;;;;;15.44;60.52;100700.16;5021081;28;1375;-59
2022/04/19 04:54:30;;;;;;;;;;;;;;;15.47;61.93;100701.75;5021746;28;1180;-61
2022/04/19 04:56:56;;;;;;;;;;;;;;;15.44;61.92;100686.84;5023044;28;1188;-60
2022/04/19 04:59:24;;;;;;;;;;;;;;;15.45;61.49;100696.53;5022112;28;1911;-60
2022/04/19 05:01:51;;;;;;;;;;;;;;;15.43;61.87;100701.13;5021261;28;1313;-62
2022/04/19 05:04:17;;;;;;;;;;;;;;;15.44;61.85;100700.16;5030410;28;1624;-58
2022/04/19 05:06:44;;;;;;;;;;;;;;;15.45;61.46;100698.34;5022449;28;1650;-60
2022/04/19 05:09:10;;;;;;;;;;;;;;;15.44;61.04;100702.84;5022192;28;1556;-61
2022/04/19 05:11:37;;;;;;;;;;;;;;;15.42;61.81;100707.44;5022396;28;995;-60
2022/04/19 05:14:03;;;;;;;;;;;;;;;15.44;61.56;100712.66;5020834;28;1546;-60
2022/04/19 05:16:31;;;;;;;;;;;;;;;15.43;61.78;100706.44;5020818;28;1881;-60
2022/04/19 05:18:58;;;;;;;;;;;;;;;15.43;61.16;100711.78;5031401;28;1910;-61
2022/04/19 05:21:24;;;;;;;;;;;;;;;15.43;61.14;100711.78;5022224;28;1275;-61
2022/04/19 05:23:51;;;;;;;;;;;;;;;15.43;61.72;100706.44;5021918;28;1029;-61
2022/04/19 05:26:17;;;;;;;;;;;;;;;15.43;61.26;100711.78;5020673;28;1447;-58
2022/04/19 05:28:44;;;;;;;;;;;;;;;15.42;60.97;100718.09;5020875;28;1578;-60
2022/04/19 05:31:11;;;;;;;;;;;;;;;15.45;61.46;100712.50;5022068;28;1670;-60
2022/04/19 05:33:39;;;;;;;;;;;;;;;15.48;61.71;100722.13;5030369;28;1059;-60
2022/04/19 05:36:05;;;;;;;;;;;;;;;15.48;61.08;100735.44;5024266;28;1695;-60
2022/04/19 05:38:32;;;;;;;;;;;;;;;15.48;61.52;100717.63;5018641;28;1984;-60
2022/04/19 05:40:59;;;;;;;;;;;;;;;15.49;61.48;100729.13;5027494;28;1975;-60
2022/04/19 05:43:25;;;;;;;;;;;;;;;15.44;61.84;100734.81;5022429;28;1356;-60
2022/04/19 05:45:52;;;;;;;;;;;;;;;15.48;61.01;100725.63;5020761;28;1200;-60
2022/04/19 05:48:19;;;;;;;;;;;;;;;15.47;62.11;100734.56;5023831;28;1862;-60
2022/04/19 05:50:46;;;;;;;;;;;;;;;15.50;60.82;100729.03;5020910;28;1757;-60
2022/04/19 05:53:13;;;;;;;;;;;;;;;15.47;60.22;100734.56;5022217;28;1571;-60
2022/04/19 05:55:40;;;;;;;;;;;;;;;15.48;62.07;100732.78;5022205;28;1287;-61
2022/04/19 05:58:07;;;;;;;;;;;;;;;15.43;61.85;100722.44;5022219;28;1181;-61
2022/04/19 06:00:33;;;;;;;;;;;;;;;15.45;61.34;100723.16;5033092;28;1906;-61
2022/04/19 06:05:44;;;;;;;;;;;;;;;15.45;61.61;100736.50;5103811;28;1774;-60
2022/04/19 06:08:12;;;;;;;;;;;;;;;15.41;61.63;100724.38;5105148;28;1168;-60
2022/04/19 06:10:38;;;;;;;;;;;;;;;15.47;61.76;100750.56;5104795;28;1210;-60
2022/04/19 06:13:05;;;;;;;;;;;;;;;15.47;61.44;100736.41;5105337;28;1535;-61
2022/04/19 06:15:32;;;;;;;;;;;;;;;15.47;60.92;100745.22;5105183;28;1563;-61
2022/04/19 06:17:58;;;;;;;;;;;;;;;15.45;60.31;100736.50;5107959;28;990;-61
2022/04/19 06:20:25;;;;;;;;;;;;;;;15.48;61.73;100757.59;5106219;28;1987;-61
2022/04/19 06:22:51;;;;;;;;;;;;;;;15.45;61.90;100747.16;5104654;28;1239;-61
2022/04/19 06:25:20;;;;;;;;;;;;;;;15.44;61.87;100737.47;5104732;28;1874;-61
2022/04/19 06:27:46;;;;;;;;;;;;;;;15.45;61.75;100736.50;5104710;28;1458;-61
2022/04/19 06:30:14;;;;;;;;;;;;;;;15.46;60.28;100740.03;5103199;28;1572;-61
2022/04/19 06:32:41;;;;;;;;;;;;;;;15.47;60.25;100750.56;5106405;28;981;-61
2022/04/19 06:35:08;;;;;;;;;;;;;;;15.49;61.58;100759.28;5108043;28;1590;-61
2022/04/19 06:37:35;;;;;;;;;;;;;;;15.48;60.94;100743.44;5104883;28;1524;-61
2022/04/19 06:40:02;;;;;;;;;;;;;;;15.50;60.58;100744.19;5105596;28;1906;-61
2022/04/19 06:42:30;;;;;;;;;;;;;;;15.48;61.60;100752.28;5103835;28;1559;-61
2022/04/19 06:44:57;;;;;;;;;;;;;;;15.49;61.74;100769.94;5104999;28;1067;-61
2022/04/19 06:47:24;;;;;;;;;;;;;;;15.48;61.35;100756.75;5102116;28;1656;-61
2022/04/19 06:49:51;;;;;;;;;;;;;;;15.45;61.72;100755.16;5110441;28;1777;-61
2022/04/19 06:52:17;;;;;;;;;;;;;;;15.48;61.36;100765.59;5103860;28;1512;-61
2022/04/19 06:54:44;;;;;;;;;;;;;;;15.44;60.84;100766.78;5102657;28;1875;-61
2022/04/19 06:57:11;;;;;;;;;;;;;;;15.45;60.34;100752.50;5102669;28;1635;-61
2022/04/19 06:59:39;;;;;;;;;;;;;;;15.49;61.50;100761.97;5104080;28;1906;-61
2022/04/19 07:02:06;;;;;;;;;;;;;;;15.50;61.52;100769.00;5040398;28;1293;-60
2022/04/19 07:04:33;;;;;;;;;;;;;;;15.49;60.65;100758.44;5027602;28;1421;-61
2022/04/19 07:06:59;;;;;;;;;;;;;;;15.49;60.13;100772.63;5019144;28;1399;-61
2022/04/19 07:09:26;;;;;;;;;;;;;;;15.47;61.04;100761.22;5020340;28;1583;-61
2022/04/19 07:11:53;;;;;;;;;;;;;;;15.48;60.11;100762.09;5021094;28;1587;-61
2022/04/19 07:14:19;;;;;;;;;;;;;;;15.50;61.32;100760.16;5020555;28;1072;-61
2022/04/19 07:16:47;;;;;;;;;;;;;;;15.50;60.39;100769.00;5021934;28;1003;-61
2022/04/19 07:19:14;;;;;;;;;;;;;;;15.47;60.40;100766.53;5031826;28;2282;-61
2022/04/19 07:27:08;;;;;;;;;;;;;;;15.50;60.51;100782.31;5020605;28;1275;-61
2022/04/19 07:29:35;;;;;;;;;;;;;;;15.49;60.28;100775.28;5024289;28;1212;-60
2022/04/19 07:32:02;;;;;;;;;;;;;;;15.48;61.67;100773.59;5023862;28;1018;-60
2022/04/19 07:34:29;;;;;;;;;;;;;;;15.49;61.81;100764.63;5030866;28;1518;-60
2022/04/19 07:36:57;;;;;;;;;;;;;;;15.47;60.74;100771.88;5022351;28;1587;-61
2022/04/19 07:39:23;;;;;;;;;;;;;;;15.48;59.63;100768.25;5025648;28;1070;-61
2022/04/19 07:41:50;;;;;;;;;;;;;;;15.50;61.19;100790.31;5022387;28;1902;-60
2022/04/19 07:44:16;;;;;;;;;;;;;;;15.48;60.51;100778.94;5024258;28;1650;-60
2022/04/19 07:46:43;;;;;;;;;;;;;;;15.48;60.47;100776.25;5024191;28;1259;-60
2022/04/19 07:49:11;;;;;;;;;;;;;;;15.49;61.44;100772.63;5027603;28;1360;-60
2022/04/19 07:51:38;;;;;;;;;;;;;;;15.48;60.82;100772.75;5019627;28;1221;-60
2022/04/19 07:54:05;;;;;;;;;;;;;;;15.49;60.08;100769.94;5023096;28;1515;-61
2022/04/19 07:56:31;;;;;;;;;;;;;;;15.50;60.49;100773.50;5022523;28;1012;-61
2022/04/19 07:58:58;;;;;;;;;;;;;;;15.51;61.56;100762.69;5022290;28;1726;-60
2022/04/19 08:01:26;;;;;;;;;;;;;;;15.52;60.37;100766.22;5071189;28;1902;-60
2022/04/19 08:03:52;;;;;;;;;;;;;;;15.51;60.65;100772.50;5108077;28;1640;-61
2022/04/19 08:06:22;;;;;;;;;;;;;;;15.50;61.68;100777.00;5106458;28;1019;-60
2022/04/19 08:08:48;;;;;;;;;;;;;;;15.50;61.46;100782.31;5108927;28;1011;-60
2022/04/19 08:11:15;;;;;;;;;;;;;;;15.48;61.62;100773.59;5103779;28;1360;-60
2022/04/19 08:13:41;;;;;;;;;;;;;;;15.50;61.21;100779.66;5106271;28;1508;-60
2022/04/19 08:16:08;;;;;;;;;;;;;;;15.50;60.64;100781.50;5107059;28;1259;-60
2022/04/19 08:18:35;;;;;;;;;;;;;;;15.50;61.66;100761.00;5115386;28;1053;-60
2022/04/19 08:21:01;;;;;;;;;;;;;;;15.52;60.74;100782.22;5105215;28;1972;-61
2022/04/19 08:23:29;;;;;;;;;;;;;;;15.51;60.81;100770.69;5104813;28;1366;-61
2022/04/19 08:25:56;;;;;;;;;;;;;;;15.50;61.10;100766.34;5098307;28;1731;-59
2022/04/19 08:28:23;;;;;;;;;;;;;;;15.50;61.72;100785.00;5105926;28;1615;-61
2022/04/19 08:30:49;;;;;;;;;;;;;;;15.56;61.69;100770.38;5106986;28;1269;-61
2022/04/19 08:33:16;;;;;;;;;;;;;;;15.56;61.54;100764.16;5112250;28;1071;-61
2022/04/19 08:35:42;;;;;;;;;;;;;;;15.51;61.50;100762.69;5105525;28;1726;-60
2022/04/19 08:38:09;;;;;;;;;;;;;;;15.56;60.94;100770.38;5106786;28;1396;-60
2022/04/19 08:40:37;;;;;;;;;;;;;;;15.56;60.98;100753.50;5111087;28;1976;-61
2022/04/19 08:43:04;;;;;;;;;;;;;;;15.56;60.85;100765.03;5104469;28;1663;-61
2022/04/19 08:45:30;;;;;;;;;;;;;;;15.57;61.20;100763.22;5104233;28;1627;-60
2022/04/19 08:47:59;;;;;;;;;;;;;;;15.57;60.68;100774.72;5107646;28;1030;-61
2022/04/19 08:50:26;;;;;;;;;;;;;;;15.55;60.86;100755.31;5107521;28;1729;-60
2022/04/19 08:58:18;;;;;;;;;;;;;;;15.56;60.54;100753.50;5106343;28;1244;-61
2022/04/19 09:00:45;;;;;;;;;;;;;;;15.55;60.98;100754.47;5088450;28;1917;-60
2022/04/19 09:03:11;;;;;;;;;;;;;;;15.60;61.48;100763.00;5027823;28;959;-61
2022/04/19 09:05:49;;;;;;;;;;;;;;;15.57;60.26;100755.22;5022604;28;1789;-60
2022/04/19 09:08:16;;;;;;;;;;;;;;;15.54;61.08;100760.75;5014299;28;1371;-60
2022/04/19 09:10:42;;;;;;;;;;;;;;;15.53;60.85;100765.25;5022936;28;1383;-60
2022/04/19 09:13:10;;;;;;;;;;;;;;;15.55;61.21;100762.47;5022594;28;1610;-60
2022/04/19 09:15:39;;;;;;;;;;;;;;;15.58;61.38;100756.91;5023199;28;1626;-61
2022/04/19 09:18:05;;;;;;;;;;;;;;;15.59;61.62;100759.47;5026383;28;1033;-61
2022/04/19 09:20:32;;;;;;;;;;;;;;;15.56;61.39;100749.06;5022624;28;1902;-60
2022/04/19 09:23:04;;;;;;;;;;;;;;;15.59;61.23;100758.63;5022604;28;1503;-61
2022/04/19 09:25:30;;;;;;;;;;;;;;;15.65;61.31;100763.50;5022059;28;1267;-60
2022/04/19 09:27:58;;;;;;;;;;;;;;;15.63;61.21;100760.09;5021951;28;1500;-60
2022/04/19 09:30:25;;;;;;;;;;;;;;;15.62;61.25;100758.41;5022324;28;1599;-61
2022/04/19 09:33:06;;;;;;;;;;;;;;;15.61;61.62;100754.88;5015459;28;1068;-61
2022/04/19 09:35:34;;;;;;;;;;;;;;;15.61;60.85;100740.69;5022242;28;1601;-60
2022/04/19 09:38:00;;;;;;;;;;;;;;;15.63;60.67;100760.94;5022292;28;1339;-60
2022/04/19 09:40:31;;;;;;;;;;;;;;;15.57;61.55;100755.22;5025158;28;1902;-61
2022/04/19 09:42:58;;;;;;;;;;;;;;;15.55;60.99;100752.66;5020590;28;1188;-60
2022/04/19 09:45:27;;;;;;;;;;;;;;;15.59;60.67;100769.28;5021801;28;1599;-60
2022/04/19 09:47:54;;;;;;;;;;;;;;;15.58;61.51;100764.91;5023065;28;1031;-61
2022/04/19 09:50:22;;;;;;;;;;;;;;;15.59;61.59;100770.13;5024295;28;1514;-61
2022/04/19 09:52:51;;;;;;;;;;;;;;;15.54;61.24;100750.09;5022109;28;1279;-60
2022/04/19 09:55:18;;;;;;;;;;;;;;;15.55;61.01;100762.47;5022403;28;1243;-61
2022/04/19 09:57:47;;;;;;;;;;;;;;;15.50;61.22;100762.84;5022502;28;1511;-61
2022/04/19 10:00:15;;;;;;;;;;;;;;;15.54;60.94;100744.78;5012581;28;1902;-61
2022/04/19 10:08:19;;;;;;;;;;;;;;;15.56;60.60;100759.72;4992765;28;1485;-60
2022/04/19 10:10:46;;;;;;;;;;;;;;;15.55;60.32;100767.81;5022347;28;1607;-60
2022/04/19 10:13:14;;;;;;;;;;;;;;;15.54;60.78;100752.78;5022106;28;1427;-60
2022/04/19 10:15:42;;;;;;;;;;;;;;;15.56;61.69;100745.50;5021987;28;1399;-60
2022/04/19 10:18:10;;;;;;;;;;;;;;;15.58;61.55;100764.91;5026134;28;1942;-60
2022/04/19 10:20:40;;;;;;;;;;;;;;;15.56;60.31;100758.84;5021660;28;1906;-60
2022/04/19 10:23:08;;;;;;;;;;;;;;;15.56;61.54;100748.19;5021836;28;1266;-60
2022/04/19 10:25:40;;;;;;;;;;;;;;;15.54;61.56;100753.66;5020861;28;1236;-60
2022/04/19 10:28:07;;;;;;;;;;;;;;;15.59;61.00;100753.28;5021759;28;1392;-60
2022/04/19 10:30:33;;;;;;;;;;;;;;;15.56;60.69;100745.50;5019778;28;1439;-60
2022/04/19 10:33:00;;;;;;;;;;;;;;;15.58;61.55;100748.91;5019394;28;1051;-60
2022/04/19 10:35:27;;;;;;;;;;;;;;;15.57;61.05;100749.91;5017151;28;1515;-60
2022/04/19 10:38:08;;;;;;;;;;;;;;;15.56;61.37;100740.19;5021372;28;1289;-60
2022/04/19 10:40:50;;;;;;;;;;;;;;;15.52;60.69;100745.75;5024655;28;1902;-61
2022/04/19 10:43:18;;;;;;;;;;;;;;;15.56;61.10;100742.84;5012701;28;1614;-61
2022/04/19 10:45:46;;;;;;;;;;;;;;;15.61;61.10;100735.38;5019532;28;1595;-60
2022/04/19 10:48:14;;;;;;;;;;;;;;;15.61;61.57;100746.03;5023276;28;1010;-60
2022/04/19 10:50:44;;;;;;;;;;;;;;;15.57;61.51;100742.75;5020172;28;1378;-61
2022/04/19 10:53:11;;;;;;;;;;;;;;;15.57;61.66;100753.41;5021771;28;1630;-61
2022/04/19 10:55:38;;;;;;;;;;;;;;;15.62;60.92;100758.41;5016237;28;1540;-60
2022/04/19 10:58:20;;;;;;;;;;;;;;;15.60;60.48;100758.53;5021418;28;1583;-61
2022/04/19 11:00:52;;;;;;;;;;;;;;;15.59;61.05;100758.63;5039399;28;1901;-61
2022/04/19 11:03:20;;;;;;;;;;;;;;;15.58;61.06;100749.78;5109140;28;1009;-60
2022/04/19 11:05:47;;;;;;;;;;;;;;;15.59;60.99;100753.28;5101834;28;1702;-60
2022/04/19 11:08:23;;;;;;;;;;;;;;;15.58;61.14;100754.25;5103666;28;1408;-61
2022/04/19 11:10:50;;;;;;;;;;;;;;;15.59;61.19;100750.63;5104158;28;1638;-61
2022/04/19 11:13:17;;;;;;;;;;;;;;;15.59;61.20;100743.47;5103942;28;1314;-60
2022/04/19 11:15:44;;;;;;;;;;;;;;;15.56;61.02;100741.06;5104617;28;1516;-61
2022/04/19 11:18:22;;;;;;;;;;;;;;;15.60;60.31;100749.69;5108881;28;1011;-60
2022/04/19 11:20:49;;;;;;;;;;;;;;;15.58;61.32;100733.78;5101790;28;1906;-60
2022/04/19 11:23:19;;;;;;;;;;;;;;;15.57;60.82;100736.56;5095833;28;1867;-60
2022/04/19 11:25:47;;;;;;;;;;;;;;;15.55;61.14;100746.50;5103928;28;1587;-61
2022/04/19 11:28:20;;;;;;;;;;;;;;;15.55;61.16;100744.66;5104327;28;1269;-60
2022/04/19 11:31:03;;;;;;;;;;;;;;;15.59;60.79;100747.97;5104288;28;1497;-61
2022/04/19 11:33:33;;;;;;;;;;;;;;;15.61;60.59;100752.22;5110824;28;1813;-61
2022/04/19 11:36:00;;;;;;;;;;;;;;;15.59;60.53;100743.47;5101930;28;1841;-60
2022/04/19 11:38:27;;;;;;;;;;;;;;;15.57;61.61;100749.91;5102286;28;1342;-60
2022/04/19 11:49:09;;;;;;;;;;;;;;;15.57;60.28;100734.75;5107794;28;1227;-61
2022/04/19 11:51:37;;;;;;;;;;;;;;;15.60;61.41;100747.00;5104065;28;1559;-61
2022/04/19 11:54:04;;;;;;;;;;;;;;;15.57;60.37;100725.91;5100912;28;1586;-60
2022/04/19 11:56:30;;;;;;;;;;;;;;;15.57;61.09;100729.41;5105767;28;1049;-60
2022/04/19 11:58:58;;;;;;;;;;;;;;;15.57;61.61;100736.56;5100611;28;1520;-60
2022/04/19 12:01:25;;;;;;;;;;;;;;;15.57;60.37;100732.06;5061942;28;1902;-60
2022/04/19 12:03:52;;;;;;;;;;;;;;;15.57;60.48;100733.91;5032876;28;1777;-60
2022/04/19 12:06:20;;;;;;;;;;;;;;;15.56;60.19;100729.53;5023386;28;1058;-60
2022/04/19 12:08:49;;;;;;;;;;;;;;;15.54;61.40;100719.00;5022718;28;982;-61
2022/04/19 12:11:17;;;;;;;;;;;;;;;15.59;60.90;100731.97;5022017;28;1611;-60
2022/04/19 12:13:44;;;;;;;;;;;;;;;15.57;60.59;100725.91;5022719;28;1797;-61
2022/04/19 12:16:26;;;;;;;;;;;;;;;15.58;61.58;100714.25;5023554;28;1440;-60
2022/04/19 12:18:53;;;;;;;;;;;;;;;15.61;60.75;100724.72;5032714;28;1638;-59
2022/04/19 12:21:36;;;;;;;;;;;;;;;15.60;60.61;100723.03;5022745;28;1906;-59
2022/04/19 12:24:03;;;;;;;;;;;;;;;15.60;61.21;100712.38;5020719;28;1586;-61
2022/04/19 12:26:29;;;;;;;;;;;;;;;15.59;60.90;100711.50;5022478;28;1073;-61
2022/04/19 12:29:06;;;;;;;;;;;;;;;15.61;60.78;100722.03;5021542;28;1737;-60
2022/04/19 12:31:33;;;;;;;;;;;;;;;15.61;61.53;100701.56;5021643;28;1593;-61
2022/04/19 12:34:00;;;;;;;;;;;;;;;15.60;60.34;100701.69;5031961;28;1499;-60
2022/04/19 12:36:27;;;;;;;;;;;;;;;15.60;61.50;100723.03;5022135;28;1383;-61
2022/04/19 12:39:03;;;;;;;;;;;;;;;15.61;60.21;100711.38;5022703;28;998;-61
2022/04/19 12:41:40;;;;;;;;;;;;;;;15.59;61.50;100700.81;5024409;28;1969;-58
2022/04/19 12:44:09;;;;;;;;;;;;;;;15.58;61.66;100695.59;5023187;28;1456;-58
2022/04/19 12:46:40;;;;;;;;;;;;;;;15.59;61.48;100705.31;5023364;28;1559;-59
2022/04/19 12:49:06;;;;;;;;;;;;;;;15.59;60.47;100706.16;5027183;28;1614;-59
2022/04/19 12:51:35;;;;;;;;;;;;;;;15.57;60.10;100707.25;5022695;28;1438;-58
2022/04/19 12:54:07;;;;;;;;;;;;;;;15.60;61.59;100707.03;5020105;28;1626;-58
2022/04/19 12:56:34;;;;;;;;;;;;;;;15.56;61.69;100705.53;5022184;28;1023;-59
2022/04/19 12:59:00;;;;;;;;;;;;;;;15.58;60.39;100708.94;5021146;28;1362;-59
2022/04/19 13:01:27;;;;;;;;;;;;;;;15.58;61.43;100692.94;5020564;28;1906;-59
2022/04/19 13:03:54;;;;;;;;;;;;;;;15.58;60.73;100706.25;5032111;28;1630;-59
2022/04/19 13:14:30;;;;;;;;;;;;;;;15.57;60.39;100693.91;5022774;28;1548;-58
2022/04/19 13:16:57;;;;;;;;;;;;;;;15.61;61.54;100698.91;5022229;28;1086;-59
2022/04/19 13:19:23;;;;;;;;;;;;;;;16.00;60.86;100702.22;5028032;28;1805;-54
2022/04/19 13:21:51;;;;;;;;;;;;;;;17.07;59.02;100697.44;4994523;23;2929;-37
2022/04/19 13:24:18;;;;;;;;;;;;;;;17.97;58.10;100696.28;4968608;28;1570;-35
2022/04/19 13:26:59;;;;;;;;;;;;;;;18.43;55.43;100703.03;4952727;28;1604;-36
2022/04/19 13:29:41;;;;;;;;;;;;;;;18.66;55.61;100684.91;4944847;28;1649;-35
2022/04/19 13:32:10;;;;;;;;;;;;;;;18.86;54.46;100710.84;4968074;28;1518;-35
2022/04/19 13:34:37;;;;;;;;;;;;;;;18.86;55.38;100712.66;4968045;28;1701;-35
2022/04/19 13:37:05;;;;;;;;;;;;;;;18.51;56.01;100705.88;4969050;28;1273;-35
2022/04/19 13:39:32;;;;;;;;;;;;;;;18.25;56.88;100698.28;4978223;28;1543;-36